Sant Martí Sacalm





Hora UTC 19:45
Temperatura 6.9 ºC
Humitat 98.6 %
Pressió 1019.9 hPa
Pluja 0.0 mm
Velocitat vent 2.2 km/h
Direcció vent SE
Radiació solar 0.1 W/m²

Dades diàries 2020-01-29



Hora UTC (hivern +1h; estiu +2h)
Temperatura (ºC) Humitat (%) Pressió (hPa) Velocitat vent (km/h) Precipitació (mm) Radiació solar (W/m²)
Hora UTC Aire Humitat Pressió Vel. Dir. Vel. Max Dir. Intent. màx 5 min. Rad. Sol.
00:05 6.0 95.0 1017.2 12.1 SSW 12.1 SW 0.0 0.1
00:10 5.8 95.7 1017.2 11.4 SSW 15.5 SW 0.0 0.1
00:15 5.7 96.3 1017.2 11.1 SW 15.2 SSW 0.0 0.1
00:20 5.7 96.4 1017.2 10.7 SW 14.8 WSW 0.0 0.1
00:25 5.9 95.0 1017.2 10.1 SW 13.4 SW 0.0 0.1
00:30 6.0 94.8 1017.1 10.3 SW 14.5 SW 0.0 0.1
00:35 5.9 95.0 1017.1 11.8 SW 15.9 SW 0.0 0.1
00:40 5.8 95.0 1017.1 11.8 SW 15.5 SW 0.0 0.1
00:45 5.8 95.6 1017.1 11.7 SW 17.3 SW 0.0 0.1
00:50 5.9 95.1 1017.1 10.2 SW 14.5 WSW 0.0 0.1
00:55 5.9 94.8 1017.1 8.7 SSW 12.0 SW 0.0 0.1
01:00 5.7 95.9 1017.1 10.4 SSW 13.1 SSW 0.0 0.1
01:05 5.8 95.9 1017.2 12.1 SSW 18.7 SW 0.0 0.1
01:10 5.9 95.5 1017.1 14.2 SW 17.7 SW 0.0 0.1
01:15 5.7 96.0 1017.0 14.0 SW 18.4 SW 0.0 0.1
01:20 5.5 96.9 1017.0 13.6 SSW 17.3 SSW 0.0 0.1
01:25 5.4 97.2 1017.1 12.5 SW 17.0 SW 0.0 0.1
01:30 5.4 97.3 1017.1 12.7 SW 17.0 SSW 0.0 0.1
01:35 5.4 97.4 1017.2 12.4 SW 15.2 SW 0.0 0.1
01:40 5.3 97.7 1017.1 10.0 SW 15.2 WSW 0.0 0.1
01:45 5.3 97.8 1017.1 10.9 SW 14.5 SW 0.0 0.1
01:50 5.2 97.6 1017.0 11.0 SW 16.6 SW 0.0 0.1
01:55 5.4 98.4 1017.0 14.6 SW 18.7 SW 0.0 0.1
02:00 5.4 97.9 1017.0 12.1 SW 16.2 SW 0.0 0.1
02:05 5.5 98.0 1017.1 11.4 SW 15.2 WSW 0.0 0.1
02:10 5.3 98.0 1017.1 11.3 SSW 15.5 SW 0.0 0.1
02:15 5.2 98.6 1017.1 12.6 SW 18.0 SSW 0.0 0.1
02:20 5.0 98.6 1017.1 12.0 SW 18.4 SW 0.0 0.1
02:25 4.9 99.1 1017.1 12.3 SW 15.9 SW 0.0 0.1
02:30 4.9 99.0 1017.1 11.5 SW 14.5 WSW 0.0 0.1
02:35 4.8 99.2 1017.1 9.0 SW 11.7 SW 0.0 0.1
02:40 4.9 99.4 1017.1 9.1 SW 11.7 SW 0.0 0.1
02:45 4.9 99.3 1017.0 10.6 SW 14.5 SSW 0.0 0.1
02:50 4.9 99.2 1017.0 10.4 SW 14.1 SW 0.0 0.1
02:55 5.1 99.1 1017.0 9.9 SW 12.0 SSW 0.0 0.1
03:00 5.1 98.7 1017.1 8.6 SW 12.7 SW 0.0 0.1
03:05 5.1 99.0 1017.1 9.6 SW 11.7 SSW 0.0 0.1
03:10 5.3 98.4 1017.1 9.0 SSW 11.0 SSW 0.0 0.1
03:15 5.1 98.4 1017.1 8.1 SSW 11.3 SSW 0.0 0.1
03:20 5.0 99.0 1017.1 7.6 SSW 9.5 SW 0.0 0.1
03:25 5.1 99.4 1017.2 8.2 SSW 11.0 SSW 0.0 0.1
03:30 5.0 99.4 1017.1 8.1 SSW 12.0 S 0.0 0.1
03:35 5.0 99.6 1017.1 9.1 SW 11.7 SW 0.0 0.1
03:40 5.1 99.7 1017.1 8.0 SW 11.3 SSW 0.0 0.1
03:45 5.2 99.6 1017.2 6.2 WSW 8.8 SW 0.0 0.1
03:50 5.1 99.1 1017.2 7.4 SW 10.3 SSW 0.0 0.1
03:55 5.1 99.4 1017.2 7.5 SW 9.2 SW 0.0 0.1
04:00 5.1 99.3 1017.2 7.5 SW 10.3 SW 0.0 0.1
04:05 5.2 99.2 1017.2 7.3 SW 9.5 WSW 0.0 0.1
04:10 5.2 99.1 1017.2 7.4 SW 10.3 SW 0.0 0.1
04:15 5.4 98.5 1017.3 7.2 SW 9.9 WSW 0.0 0.1
04:20 5.3 98.0 1017.3 6.4 SSW 9.5 SW 0.0 0.1
04:25 5.4 98.4 1017.4 4.9 SSW 6.4 SSW 0.0 0.1
04:30 5.5 97.8 1017.4 4.2 S 6.4 S 0.0 0.1
04:35 5.4 98.1 1017.4 5.6 SSE 7.8 SE 0.0 0.1
04:40 5.3 97.8 1017.5 3.6 S 5.0 SSE 0.0 0.1
04:45 5.6 95.6 1017.6 5.2 SW 7.1 SSW 0.0 0.1
04:50 5.6 96.5 1017.6 6.4 WSW 8.8 WSW 0.0 0.1
04:55 5.6 96.6 1017.5 5.3 WSW 7.1 W 0.0 0.1
05:00 5.5 96.3 1017.4 6.3 SW 8.5 SW 0.0 0.1
05:05 5.4 96.9 1017.4 6.7 SW 9.5 SW 0.0 0.1
05:10 5.4 96.2 1017.4 7.5 SW 8.8 WSW 0.0 0.1
05:15 5.4 96.2 1017.5 6.8 SW 8.1 SW 0.0 0.1
05:20 5.5 95.4 1017.7 5.2 SW 7.1 SW 0.0 0.1
05:25 5.7 93.9 1017.8 5.0 SSW 7.4 SW 0.0 0.1
05:30 5.8 93.8 1017.7 6.8 SSW 9.5 SSW 0.0 0.1
05:35 5.6 94.5 1017.5 4.3 SSW 7.1 SSW 0.0 0.1
05:40 5.5 95.4 1017.8 3.2 SW 4.2 SW 0.0 0.1
05:45 5.7 95.4 1017.8 5.2 SW 6.4 SW 0.0 0.1
05:50 5.9 94.5 1017.9 5.3 SSW 6.4 SSW 0.0 0.1
05:55 5.8 94.5 1017.9 4.9 S 6.7 S 0.0 0.1
06:00 5.5 95.4 1017.8 6.6 S 7.8 S 0.0 0.1
06:05 5.3 96.1 1017.8 8.0 S 11.0 SSE 0.0 0.1
06:10 5.3 95.8 1017.8 7.5 S 11.3 S 0.0 0.1
06:15 5.4 95.6 1017.7 8.3 S 12.0 S 0.0 0.1
06:20 5.3 95.2 1017.8 6.5 S 10.3 SSE 0.0 0.1
06:25 5.2 95.4 1018.0 4.2 S 8.1 S 0.0 0.1
06:30 5.1 96.1 1018.3 7.1 N 13.8 NNW 0.0 0.1
06:35 5.3 95.4 1018.3 9.0 N 13.4 N 0.0 0.1
06:40 5.4 94.2 1018.2 4.9 E 6.4 E 0.0 0.1
06:45 5.2 96.1 1018.1 2.4 ESE 4.6 ESE 0.0 0.1
06:50 5.4 95.6 1018.1 0.3 ENE 2.1 NNE 0.0 0.2
06:55 5.6 94.3 1018.1 1.6 NNE 3.5 NE 0.0 0.9
07:00 5.7 93.4 1018.2 0.1 NNE 1.8 NNE 0.0 2.2
07:05 5.7 93.6 1018.2 2.0 SSE 3.9 SE 0.0 4.2
07:10 5.7 93.5 1018.3 0.5 SSW 2.8 SSW 0.0 6.6
07:15 5.7 93.4 1018.3 4.9 SSW 7.4 SW 0.0 10.6
07:20 5.5 94.5 1018.3 4.9 SSW 6.7 SSW 0.0 16.8
07:25 5.5 94.7 1018.3 4.1 SSW 6.0 SW 0.0 23.3
07:30 5.5 94.7 1018.2 7.8 SSW 9.2 SSW 0.0 36.3
07:35 5.1 95.0 1018.3 6.3 SW 8.5 SW 0.0 80.5
07:40 5.1 95.9 1018.5 3.4 SSW 5.3 SW 0.0 100.6
07:45 5.4 94.6 1018.7 3.0 WSW 5.7 WNW 0.0 117.0
07:50 5.7 92.9 1018.7 3.9 NNW 7.8 N 0.0 123.8
07:55 5.9 91.9 1018.7 4.3 N 6.4 N 0.0 141.2
08:00 6.0 91.8 1018.8 5.7 NNE 9.2 NNE 0.0 129.3
08:05 6.0 92.0 1018.8 5.0 NE 7.4 NNE 0.0 120.0
08:10 5.9 92.5 1018.9 2.2 NE 6.7 NE 0.0 168.6
08:15 6.0 91.2 1018.9 2.9 SSW 5.0 SW 0.0 162.5
08:20 5.6 91.5 1018.9 4.4 SW 6.4 SW 0.0 180.0
08:25 5.6 91.4 1018.9 6.1 SSW 7.4 SSW 0.0 216.4
08:30 5.5 90.9 1018.9 6.3 SSW 7.8 SSW 0.0 231.9
08:35 5.4 91.3 1018.9 6.6 SSW 9.5 SSW 0.0 257.0
08:40 5.6 91.2 1018.9 6.4 SW 10.6 WSW 0.0 261.1
08:45 6.0 89.3 1019.1 5.1 WSW 8.8 SW 0.0 312.1
08:50 6.5 85.5 1019.1 6.0 WSW 13.4 W 0.0 315.2
08:55 7.0 82.2 1019.2 7.5 WSW 12.4 W 0.0 308.9
09:00 7.1 81.6 1019.3 6.2 WSW 11.3 W 0.0 166.6
09:05 6.8 81.8 1019.4 3.3 W 7.8 WSW 0.0 117.3
09:10 6.6 84.6 1019.5 2.7 N 5.7 NW 0.0 154.2
09:15 6.8 90.2 1019.4 2.6 E 7.8 ENE 0.0 284.1
09:20 7.4 89.0 1019.5 3.5 SE 7.4 SE 0.0 255.8
09:25 7.6 88.8 1019.5 4.6 E 7.8 E 0.0 378.1
09:30 7.9 87.6 1019.6 4.0 NE 7.8 NE 0.0 468.3
09:35 8.1 86.4 1019.6 3.5 NE 7.1 NE 0.0 227.6
09:40 8.0 86.2 1019.7 4.5 NE 8.1 NE 0.0 150.1
09:45 7.6 84.9 1019.8 3.8 NE 9.2 NNE 0.0 217.0
09:50 7.9 85.5 1019.7 2.1 E 6.0 E 0.0 284.3
09:55 7.8 83.8 1019.7 3.7 WSW 6.0 NW 0.0 251.0
10:00 7.3 84.2 1019.8 3.8 WNW 5.7 WNW 0.0 316.7
10:05 7.3 83.7 1019.7 5.4 WSW 9.2 SW 0.0 397.7
10:10 7.2 85.0 1019.7 8.7 SW 10.3 SSW 0.0 373.0
10:15 6.7 88.4 1019.7 8.5 SW 10.3 SW 0.0 310.7
10:20 6.5 88.8 1019.8 9.2 SW 10.6 SW 0.0 244.3
10:25 6.4 88.4 1019.8 9.9 SW 11.7 SW 0.0 274.9
10:30 6.4 87.3 1019.8 7.3 SW 10.3 SW 0.0 226.9
10:35 6.7 86.4 1019.9 5.7 SW 7.4 SW 0.0 355.5
10:40 7.3 82.6 1020.0 7.5 SW 10.6 SW 0.0 520.4
10:45 7.7 78.0 1019.9 9.7 SW 12.0 SW 0.0 502.1
10:50 7.9 75.1 1019.9 9.2 SW 11.7 SW 0.0 454.5
10:55 8.0 76.8 1019.8 8.6 SW 11.3 SW 0.0 506.0
11:00 8.1 75.3 1019.8 7.5 SSW 10.6 SSW 0.0 494.3
11:05 8.3 72.4 1019.8 6.6 SSW 8.5 SSW 0.0 463.9
11:10 8.6 73.8 1019.8 5.6 SSW 8.5 SW 0.0 273.2
11:15 8.5 72.5 1019.8 7.9 SSW 11.3 SW 0.0 477.2
11:20 8.4 75.1 1019.7 9.5 SW 11.7 SW 0.0 520.5
11:25 8.5 71.1 1019.7 9.4 SW 12.7 SW 0.0 539.5
11:30 8.6 72.0 1019.6 9.4 SSW 12.4 SSW 0.0 492.2
11:35 8.6 71.5 1019.6 9.9 SW 13.8 SSW 0.0 343.6
11:40 8.3 71.0 1019.5 11.0 SW 13.4 SSW 0.0 266.6
11:45 8.3 73.6 1019.3 11.3 SW 13.1 SW 0.0 553.2
11:50 8.6 74.9 1019.3 9.4 SW 15.5 SSW 0.0 464.9
11:55 8.9 73.8 1019.2 10.2 SW 14.8 SW 0.0 442.6
12:00 8.9 73.6 1019.1 13.1 SW 17.7 SW 0.0 434.0
12:05 9.0 74.5 1019.0 15.5 SW 21.2 SW 0.0 355.1
12:10 9.2 72.9 1019.0 16.7 SW 23.0 SSW 0.0 446.4
12:15 9.4 71.4 1018.9 17.4 SW 23.3 SW 0.0 411.9
12:20 9.5 71.4 1018.9 13.4 WSW 23.0 SW 0.0 473.6
12:25 9.7 69.2 1018.8 17.3 SW 23.0 WSW 0.0 478.8
12:30 9.3 68.4 1018.7 18.3 SW 25.4 SW 0.0 518.8
12:35 9.5 67.3 1018.7 16.3 SW 20.8 SW 0.0 518.6
12:40 9.5 66.2 1018.7 15.2 SW 20.5 SW 0.0 520.3
12:45 9.6 65.9 1018.7 15.2 SW 20.5 SW 0.0 499.1
12:50 9.5 67.0 1018.7 18.8 SW 25.8 SW 0.0 493.3
12:55 9.6 66.7 1018.7 17.6 SW 24.7 SW 0.0 448.4
13:00 9.6 65.5 1018.6 18.3 SW 26.1 SW 0.0 384.6
13:05 9.6 66.7 1018.5 18.4 SW 26.5 SSW 0.0 373.2
13:10 9.7 66.5 1018.5 18.7 SW 25.8 SW 0.0 418.7
13:15 9.7 67.3 1018.5 20.6 SW 26.8 SW 0.0 417.5
13:20 9.5 67.6 1018.4 20.5 SW 30.4 SW 0.0 392.9
13:25 9.7 67.8 1018.3 21.3 SW 28.6 SW 0.0 441.9
13:30 9.9 67.3 1018.3 20.2 SW 32.8 SW 0.0 389.0
13:35 9.8 66.4 1018.2 20.8 SW 30.4 SW 0.0 369.9
13:40 9.9 66.8 1018.2 19.7 SW 25.4 SW 0.0 431.3
13:45 10.0 66.8 1018.1 19.1 SW 28.9 SW 0.0 462.7
13:50 10.2 66.9 1018.2 16.7 SW 23.0 SW 0.0 440.3
13:55 10.2 66.1 1018.1 22.2 SW 31.1 SW 0.0 406.9
14:00 10.0 66.7 1018.0 22.2 SW 28.9 SW 0.0 388.2
14:05 10.1 66.1 1018.0 23.2 SW 31.8 SW 0.0 410.5
14:10 10.2 66.9 1018.1 18.3 SW 27.2 SW 0.0 407.2
14:15 10.3 66.7 1018.1 16.2 SW 23.7 WSW 0.0 326.8
14:20 10.3 66.4 1018.1 15.8 SW 22.6 SSW 0.0 339.9
14:25 10.4 66.3 1018.2 12.3 SW 20.5 SW 0.0 304.8
14:30 10.5 66.7 1018.3 8.8 SW 17.0 SSW 0.0 361.2
14:35 10.8 64.2 1018.3 10.8 SW 16.6 SW 0.0 437.5
14:40 10.9 63.6 1018.3 11.7 SW 19.8 SW 0.0 433.1
14:45 11.1 63.1 1018.3 12.0 SW 20.5 SW 0.0 375.8
14:50 10.9 62.1 1018.3 13.6 SW 19.4 SW 0.0 389.9
14:55 11.0 62.6 1018.4 8.5 SW 12.4 WSW 0.0 377.9
15:00 11.1 62.4 1018.3 8.2 SW 12.4 WSW 0.0 283.0
15:05 11.0 63.9 1018.4 6.4 WSW 13.8 SW 0.0 221.0
15:10 10.8 70.3 1018.5 2.1 ENE 4.6 SW 0.0 190.1
15:15 10.5 72.5 1018.5 2.3 S 8.8 SW 0.0 165.9
15:20 10.2 76.5 1018.6 2.7 NNE 5.7 NE 0.0 159.1
15:25 10.1 77.8 1018.6 2.1 NE 7.4 NE 0.0 150.7
15:30 9.9 79.8 1018.6 4.4 NNE 7.8 ENE 0.0 163.1
15:35 9.9 82.2 1018.5 3.8 NE 7.1 ENE 0.0 166.9
15:40 10.0 81.6 1018.5 3.9 NE 7.1 NE 0.0 149.5
15:45 10.1 82.5 1018.6 4.3 ENE 6.4 ENE 0.0 148.2
15:50 10.2 77.9 1018.6 2.9 ESE 5.3 SSE 0.0 152.1
15:55 10.3 84.8 1018.6 5.6 S 8.5 S 0.0 141.1
16:00 10.0 87.7 1018.6 6.0 S 9.5 S 0.0 133.5
16:05 9.7 88.6 1018.5 6.1 S 10.3 SSE 0.0 148.5
16:10 9.8 87.1 1018.6 4.9 S 9.5 S 0.0 138.3
16:15 9.9 86.4 1018.6 4.2 SSW 11.0 SSW 0.0 141.7
16:20 10.0 85.9 1018.7 3.7 S 5.7 SSW 0.0 124.8
16:25 10.1 83.6 1018.8 4.1 S 7.4 SSE 0.0 121.9
16:30 10.3 83.7 1018.8 3.7 S 6.7 S 0.0 103.1
16:35 10.1 83.4 1018.9 3.1 NNW 6.4 NE 0.0 85.2
16:40 9.7 88.0 1018.9 3.9 NE 6.4 NE 0.0 65.2
16:45 9.5 88.7 1019.0 1.7 NNE 3.2 N 0.0 45.1
16:50 9.3 89.2 1019.1 4.2 NNE 5.0 NNE 0.0 37.9
16:55 8.9 90.3 1019.1 4.0 NNE 5.0 NNE 0.0 20.5
17:00 8.7 90.7 1019.1 3.0 NE 4.6 NNE 0.0 10.8
17:05 8.5 91.1 1019.1 5.0 NNE 6.0 NNE 0.0 4.8
17:10 8.4 91.0 1019.1 3.5 NNE 4.2 NE 0.0 2.1
17:15 8.5 90.4 1019.2 1.6 N 2.8 NNE 0.0 0.9
17:20 8.5 88.7 1019.2 2.1 W 4.2 W 0.0 0.3
17:25 8.5 86.9 1019.2 4.4 W 6.4 W 0.0 0.1
17:30 8.3 89.1 1019.3 2.4 W 5.7 WSW 0.0 0.1
17:35 8.1 90.6 1019.3 5.2 SW 8.5 SW 0.0 0.1
17:40 7.9 91.5 1019.3 6.7 SW 9.5 W 0.0 0.1
17:45 7.9 90.9 1019.3 4.7 SW 7.1 SW 0.0 0.1
17:50 7.9 89.3 1019.4 4.1 WSW 7.1 WSW 0.0 0.1
17:55 8.1 83.7 1019.4 4.6 W 10.3 W 0.0 0.1
18:00 8.6 79.0 1019.3 5.3 WSW 10.3 W 0.0 0.1
18:05 8.6 79.8 1019.3 7.8 SW 12.4 WSW 0.0 0.1
18:10 8.1 86.6 1019.3 6.9 SW 9.2 SW 0.0 0.1
18:15 7.8 89.8 1019.3 7.3 SSW 9.9 SSW 0.0 0.1
18:20 7.9 90.2 1019.3 7.3 SW 9.9 SSW 0.0 0.1
18:25 8.0 89.1 1019.3 6.0 SW 9.2 WSW 0.0 0.1
18:30 8.2 87.9 1019.3 4.7 SW 7.4 SW 0.0 0.1
18:35 8.1 88.6 1019.4 1.9 WSW 3.9 WSW 0.0 0.1
18:40 7.9 91.9 1019.4 1.3 W 3.5 WNW 0.0 0.1
18:45 7.8 90.2 1019.4 5.1 SSW 7.1 SSW 0.0 0.1
18:50 7.8 89.5 1019.4 7.1 SW 9.2 SW 0.0 0.1
18:55 7.8 89.8 1019.5 6.0 SW 8.1 SW 0.0 0.1
19:00 7.9 89.5 1019.6 4.5 SW 6.4 SW 0.0 0.1
19:05 7.8 91.3 1019.6 2.8 N 4.2 N 0.0 0.1
19:10 7.6 94.5 1019.7 1.3 NNE 2.8 N 0.0 0.1
19:15 7.5 95.0 1019.7 1.3 SW 4.2 WSW 0.0 0.1
19:20 7.6 92.4 1019.6 3.2 SSW 5.7 SSW 0.0 0.1
19:25 7.5 92.3 1019.6 2.9 SW 5.7 SSW 0.0 0.1
19:30 7.5 93.5 1019.7 1.1 N 2.5 NNE 0.0 0.1
19:35 7.3 97.6 1019.8 1.4 NNE 3.9 NNE 0.0 0.1
19:40 7.1 98.4 1019.8 0.4 E 2.8 SSW 0.0 0.1
19:45 6.9 98.6 1019.9 2.2 SE 6.7 S 0.0 0.1
Màxima 11.2 99.7 1020.0 23.2 SW 32.8 SW 0.0 553.2
Mínima 4.7 62.1 1017.0
Total 0.0